EST,Max TemperatureF,Mean TemperatureF,Min TemperatureF,Max Dew PointF,MeanDew PointF,Min DewpointF,Max Humidity, Mean Humidity, Min Humidity, Max Sea Level PressureIn, Mean Sea Level PressureIn, Min Sea Level PressureIn, Max VisibilityMiles, Mean VisibilityMiles, Min VisibilityMiles, Max Wind SpeedMPH, Mean Wind SpeedMPH, Max Gust SpeedMPH,PrecipitationIn, CloudCover, Events, WindDirDegrees
2013-1-1,32,27,21,29,22,14,100,81,62,30.12,30.05,29.98,10,6,2,13,7,22,0.03,8,Snow,308
2013-1-2,22,16,10,14,10,6,88,75,61,30.26,30.18,30.05,9,7,5,12,4,17,0.00,5,,258
2013-1-3,28,17,5,21,13,1,92,77,62,30.23,30.20,30.08,10,7,4,21,9,26,T,5,Snow,233
2013-1-4,30,26,21,20,16,14,75,64,53,30.27,30.20,30.11,10,9,5,26,16,35,T,4,Snow,246
2013-1-5,34,26,17,25,20,14,81,72,63,30.38,30.26,30.10,9,7,4,16,8,20,T,6,,214
2013-1-6,36,33,30,31,27,25,85,77,69,30.26,30.08,29.99,7,5,3,18,11,25,0.01,8,Snow,244
2013-1-7,34,30,26,27,24,21,85,75,64,30.47,30.35,30.26,5,3,2,17,9,21,0.00,6,,228
2013-1-8,39,29,19,27,23,17,92,73,54,30.35,30.31,30.25,10,6,4,16,8,20,0.00,3,,191
2013-1-9,46,38,30,36,29,24,85,69,53,30.50,30.28,30.20,10,8,2,22,11,26,0.04,5,Rain,226
2013-1-10,40,32,24,29,27,21,92,76,59,30.61,30.49,30.25,10,8,4,15,8,20,T,6,Rain,104
2013-1-11,58,49,39,52,42,27,93,73,53,30.22,30.01,29.88,10,8,2,22,12,29,0.35,7,Rain,176
2013-1-12,60,55,49,56,52,48,96,87,78,30.05,29.99,29.88,10,5,0,17,10,23,T,7,Fog-Rain,195
2013-1-13,64,62,60,56,54,37,84,78,72,29.98,29.84,29.77,10,8,2,26,16,38,T,8,Rain,222
2013-1-14,40,32,24,37,25,19,92,78,63,30.43,30.28,30.00,10,8,5,23,8,29,0.01,7,Rain,335
2013-1-15,33,28,22,22,20,18,88,72,56,30.40,30.31,30.11,10,9,6,12,6,14,0.00,6,,38
2013-1-16,35,32,29,25,23,21,78,69,59,30.06,29.97,29.91,10,8,7,17,9,29,0.00,6,,249
2013-1-17,36,31,26,28,24,16,78,70,61,30.31,30.13,30.01,10,8,7,22,9,30,T,7,,282
2013-1-18,33,26,18,18,14,8,65,58,51,30.50,30.37,30.18,10,10,6,25,13,31,T,4,Snow,246
2013-1-19,51,42,33,27,22,18,56,44,32,30.16,30.00,29.77,10,10,10,29,20,39,0.00,2,,221
2013-1-20,46,34,21,31,16,10,62,54,45,30.18,30.01,29.72,10,9,6,38,17,49,T,5,Snow,282
2013-1-21,22,16,9,14,8,1,84,68,52,30.14,30.03,29.90,10,5,0,31,13,40,0.06,8,Snow,275
2013-1-22,12,8,3,2,-1,-4,80,72,63,30.32,30.23,30.05,10,7,2,22,11,31,0.01,4,Snow,275
2013-1-23,16,9,1,10,3,-5,92,72,51,30.32,30.23,30.04,10,7,2,15,6,20,0.02,6,Snow,241
2013-1-24,22,16,10,12,6,1,92,69,45,30.58,30.36,30.05,10,6,1,16,6,20,0.02,6,Snow,322
2013-1-25,18,16,13,15,9,3,92,78,64,30.51,30.18,30.00,9,4,0,14,6,18,0.20,8,Snow,149
2013-1-26,27,22,16,20,16,10,92,76,60,30.46,30.25,30.04,9,4,1,17,7,22,0.02,8,Snow,282
2013-1-27,30,20,9,20,15,11,88,73,58,30.55,30.45,30.28,8,6,4,17,7,16,T,6,Snow,152
2013-1-28,48,39,29,47,37,21,100,82,63,30.28,30.08,29.96,4,2,0,20,13,28,0.46,8,Fog-Rain-Snow,209
2013-1-29,61,54,47,55,51,46,100,85,69,30.05,29.90,29.68,10,4,0,25,12,31,0.11,7,Fog-Rain,203
2013-1-30,66,51,36,55,49,33,93,78,63,29.65,29.38,29.19,10,8,0,46,20,59,0.46,7,Rain,214
2013-1-31,36,27,18,32,18,9,88,75,61,29.89,29.66,29.31,10,4,0,36,19,46,0.16,8,Snow,267